sensor_id;sensor_type;location;lat;lon;timestamp;pressure;altitude;pressure_sealevel;temperature;humidity
64698;BME280;51124;53.394;-6.294;2023-04-30T00:02:04;101107.51;;;19.14;11.35
64698;BME280;51124;53.394;-6.294;2023-04-30T00:04:37;101106.66;;;18.76;11.20
64698;BME280;51124;53.394;-6.294;2023-04-30T00:07:14;101099.29;;;20.70;10.73
64698;BME280;51124;53.394;-6.294;2023-04-30T00:09:42;101098.95;;;20.11;10.58
64698;BME280;51124;53.394;-6.294;2023-04-30T00:12:09;101098.19;;;19.29;10.76
64698;BME280;51124;53.394;-6.294;2023-04-30T00:14:36;101099.40;;;20.46;10.35
64698;BME280;51124;53.394;-6.294;2023-04-30T00:17:04;101097.20;;;20.13;10.41
64698;BME280;51124;53.394;-6.294;2023-04-30T00:19:31;101099.94;;;20.11;10.26
64698;BME280;51124;53.394;-6.294;2023-04-30T00:21:58;101095.52;;;19.97;10.27
64698;BME280;51124;53.394;-6.294;2023-04-30T00:24:25;101094.06;;;19.78;10.26
64698;BME280;51124;53.394;-6.294;2023-04-30T00:26:52;101094.86;;;19.65;10.14
64698;BME280;51124;53.394;-6.294;2023-04-30T00:29:20;101090.63;;;19.13;10.43
64698;BME280;51124;53.394;-6.294;2023-04-30T00:31:47;101084.83;;;20.13;9.99
64698;BME280;51124;53.394;-6.294;2023-04-30T00:34:14;101085.17;;;20.29;10.07
64698;BME280;51124;53.394;-6.294;2023-04-30T00:36:41;101082.48;;;19.41;10.17
64698;BME280;51124;53.394;-6.294;2023-04-30T00:39:09;101081.15;;;20.06;9.96
64698;BME280;51124;53.394;-6.294;2023-04-30T00:41:36;101077.85;;;19.04;10.19
64698;BME280;51124;53.394;-6.294;2023-04-30T00:44:04;101081.60;;;19.81;9.97
64698;BME280;51124;53.394;-6.294;2023-04-30T00:46:32;101080.11;;;20.25;9.98
64698;BME280;51124;53.394;-6.294;2023-04-30T00:48:59;101083.81;;;19.98;9.79
64698;BME280;51124;53.394;-6.294;2023-04-30T00:51:28;101088.34;;;20.06;9.83
64698;BME280;51124;53.394;-6.294;2023-04-30T00:53:55;101088.92;;;20.05;9.84
64698;BME280;51124;53.394;-6.294;2023-04-30T00:56:22;101084.80;;;19.70;9.77
64698;BME280;51124;53.394;-6.294;2023-04-30T00:58:50;101089.87;;;19.84;9.87
64698;BME280;51124;53.394;-6.294;2023-04-30T01:01:19;101084.79;;;19.34;9.77
64698;BME280;51124;53.394;-6.294;2023-04-30T01:03:46;101084.46;;;19.74;9.82
64698;BME280;51124;53.394;-6.294;2023-04-30T01:06:14;101079.01;;;20.65;9.75
64698;BME280;51124;53.394;-6.294;2023-04-30T01:08:41;101079.05;;;20.03;9.71
64698;BME280;51124;53.394;-6.294;2023-04-30T01:11:16;101080.76;;;20.60;9.76
64698;BME280;51124;53.394;-6.294;2023-04-30T01:13:43;101081.80;;;19.62;9.86
64698;BME280;51124;53.394;-6.294;2023-04-30T01:16:10;101078.77;;;19.61;9.88
64698;BME280;51124;53.394;-6.294;2023-04-30T01:18:32;101074.81;;;19.94;9.69
64698;BME280;51124;53.394;-6.294;2023-04-30T01:21:03;101075.83;;;19.31;9.93
64698;BME280;51124;53.394;-6.294;2023-04-30T01:23:45;101071.45;;;19.93;9.80
64698;BME280;51124;53.394;-6.294;2023-04-30T01:26:12;101068.62;;;20.76;9.75
64698;BME280;51124;53.394;-6.294;2023-04-30T01:28:30;101068.95;;;19.59;9.83
64698;BME280;51124;53.394;-6.294;2023-04-30T01:30:59;101065.46;;;19.77;9.68
64698;BME280;51124;53.394;-6.294;2023-04-30T01:33:26;101064.66;;;19.02;9.99
64698;BME280;51124;53.394;-6.294;2023-04-30T01:36:16;101064.32;;;19.16;9.90
64698;BME280;51124;53.394;-6.294;2023-04-30T01:38:40;101063.29;;;19.42;9.90
64698;BME280;51124;53.394;-6.294;2023-04-30T01:41:08;101055.25;;;20.53;9.79
64698;BME280;51124;53.394;-6.294;2023-04-30T01:43:35;101054.47;;;19.44;9.85
64698;BME280;51124;53.394;-6.294;2023-04-30T01:46:03;101047.31;;;18.93;9.88
64698;BME280;51124;53.394;-6.294;2023-04-30T01:48:31;101048.08;;;18.98;9.74
64698;BME280;51124;53.394;-6.294;2023-04-30T01:50:55;101046.78;;;19.37;9.70
64698;BME280;51124;53.394;-6.294;2023-04-30T01:53:27;101045.44;;;18.75;9.87
64698;BME280;51124;53.394;-6.294;2023-04-30T01:56:01;101045.55;;;22.03;9.91
64698;BME280;51124;53.394;-6.294;2023-04-30T01:58:28;101041.93;;;21.80;10.30
64698;BME280;51124;53.394;-6.294;2023-04-30T02:00:56;101033.51;;;19.88;10.35
64698;BME280;51124;53.394;-6.294;2023-04-30T02:03:24;101037.35;;;23.34;10.49
64698;BME280;51124;53.394;-6.294;2023-04-30T02:05:51;101033.55;;;23.00;11.02
64698;BME280;51124;53.394;-6.294;2023-04-30T02:08:19;101033.78;;;21.49;11.68
64698;BME280;51124;53.394;-6.294;2023-04-30T02:10:46;101029.81;;;21.73;11.80
64698;BME280;51124;53.394;-6.294;2023-04-30T02:13:14;101030.56;;;21.38;12.06
64698;BME280;51124;53.394;-6.294;2023-04-30T02:15:41;101026.46;;;21.72;11.94
64698;BME280;51124;53.394;-6.294;2023-04-30T02:18:09;101024.03;;;21.12;12.10
64698;BME280;51124;53.394;-6.294;2023-04-30T02:20:36;101022.56;;;21.32;12.19
64698;BME280;51124;53.394;-6.294;2023-04-30T02:23:04;101021.44;;;21.39;12.24
64698;BME280;51124;53.394;-6.294;2023-04-30T02:25:31;101015.34;;;21.60;12.18
64698;BME280;51124;53.394;-6.294;2023-04-30T02:27:58;101019.26;;;21.38;12.19
64698;BME280;51124;53.394;-6.294;2023-04-30T02:30:26;101013.72;;;21.04;12.46
64698;BME280;51124;53.394;-6.294;2023-04-30T02:32:53;101015.77;;;21.48;12.37
64698;BME280;51124;53.394;-6.294;2023-04-30T02:35:21;101011.94;;;21.25;12.43
64698;BME280;51124;53.394;-6.294;2023-04-30T02:37:48;101014.04;;;20.90;12.36
64698;BME280;51124;53.394;-6.294;2023-04-30T02:40:16;101013.02;;;21.63;12.32
64698;BME280;51124;53.394;-6.294;2023-04-30T02:42:44;101011.26;;;21.96;12.37
64698;BME280;51124;53.394;-6.294;2023-04-30T02:45:11;101008.74;;;21.43;12.30
64698;BME280;51124;53.394;-6.294;2023-04-30T02:47:38;101005.32;;;21.53;12.25
64698;BME280;51124;53.394;-6.294;2023-04-30T02:50:06;101006.51;;;20.47;12.55
64698;BME280;51124;53.394;-6.294;2023-04-30T02:52:34;101004.58;;;20.43;12.40
64698;BME280;51124;53.394;-6.294;2023-04-30T02:55:01;101002.13;;;19.15;12.27
64698;BME280;51124;53.394;-6.294;2023-04-30T02:57:29;100994.78;;;18.59;11.84
64698;BME280;51124;53.394;-6.294;2023-04-30T02:59:56;100990.79;;;19.04;11.34
64698;BME280;51124;53.394;-6.294;2023-04-30T03:02:23;100988.31;;;19.06;10.97
64698;BME280;51124;53.394;-6.294;2023-04-30T03:04:50;100989.92;;;18.80;10.85
64698;BME280;51124;53.394;-6.294;2023-04-30T03:07:18;100986.66;;;18.26;10.89
64698;BME280;51124;53.394;-6.294;2023-04-30T03:09:45;100986.00;;;19.07;10.47
64698;BME280;51124;53.394;-6.294;2023-04-30T03:12:12;100987.38;;;18.44;10.58
64698;BME280;51124;53.394;-6.294;2023-04-30T03:14:40;100984.91;;;19.24;10.25
64698;BME280;51124;53.394;-6.294;2023-04-30T03:17:07;100986.38;;;19.22;10.24
64698;BME280;51124;53.394;-6.294;2023-04-30T03:19:34;100989.03;;;19.05;10.24
64698;BME280;51124;53.394;-6.294;2023-04-30T03:22:02;100989.76;;;20.00;9.92
64698;BME280;51124;53.394;-6.294;2023-04-30T03:24:29;100989.68;;;19.36;10.09
64698;BME280;51124;53.394;-6.294;2023-04-30T03:26:56;100984.74;;;18.57;10.33
64698;BME280;51124;53.394;-6.294;2023-04-30T03:29:23;100986.13;;;19.33;9.96
64698;BME280;51124;53.394;-6.294;2023-04-30T03:31:51;100985.64;;;18.79;9.98
64698;BME280;51124;53.394;-6.294;2023-04-30T03:34:18;100982.81;;;19.22;9.86
64698;BME280;51124;53.394;-6.294;2023-04-30T03:36:45;100983.36;;;18.77;9.88
64698;BME280;51124;53.394;-6.294;2023-04-30T03:39:13;100985.73;;;19.05;10.00
64698;BME280;51124;53.394;-6.294;2023-04-30T03:41:40;100984.70;;;19.09;9.89
64698;BME280;51124;53.394;-6.294;2023-04-30T03:44:08;100982.67;;;19.21;9.87
64698;BME280;51124;53.394;-6.294;2023-04-30T03:46:35;100984.19;;;19.50;9.80
64698;BME280;51124;53.394;-6.294;2023-04-30T03:49:02;100978.02;;;18.87;9.75
64698;BME280;51124;53.394;-6.294;2023-04-30T03:51:29;100973.57;;;19.24;9.82
64698;BME280;51124;53.394;-6.294;2023-04-30T03:53:56;100975.99;;;19.54;9.72
64698;BME280;51124;53.394;-6.294;2023-04-30T03:56:24;100971.12;;;19.18;9.67
64698;BME280;51124;53.394;-6.294;2023-04-30T03:58:51;100970.13;;;19.00;9.64
64698;BME280;51124;53.394;-6.294;2023-04-30T04:01:18;100964.89;;;19.58;9.66
64698;BME280;51124;53.394;-6.294;2023-04-30T04:03:45;100968.18;;;18.19;9.98
64698;BME280;51124;53.394;-6.294;2023-04-30T04:06:12;100965.84;;;19.73;9.57
64698;BME280;51124;53.394;-6.294;2023-04-30T04:08:40;100965.65;;;19.29;9.50
64698;BME280;51124;53.394;-6.294;2023-04-30T04:11:07;100968.68;;;19.76;9.57
64698;BME280;51124;53.394;-6.294;2023-04-30T04:13:34;100965.02;;;19.39;9.81
64698;BME280;51124;53.394;-6.294;2023-04-30T04:16:02;100964.78;;;19.43;9.75
64698;BME280;51124;53.394;-6.294;2023-04-30T04:18:29;100964.90;;;19.00;9.65
64698;BME280;51124;53.394;-6.294;2023-04-30T04:20:56;100966.12;;;18.59;9.72
64698;BME280;51124;53.394;-6.294;2023-04-30T04:23:24;100965.92;;;19.02;9.85
64698;BME280;51124;53.394;-6.294;2023-04-30T04:25:51;100964.95;;;20.02;9.78
64698;BME280;51124;53.394;-6.294;2023-04-30T04:28:19;100964.04;;;19.05;9.93
64698;BME280;51124;53.394;-6.294;2023-04-30T04:30:46;100960.68;;;18.93;9.71
64698;BME280;51124;53.394;-6.294;2023-04-30T04:33:13;100962.10;;;20.10;9.69
64698;BME280;51124;53.394;-6.294;2023-04-30T04:35:40;100961.08;;;19.21;9.60
64698;BME280;51124;53.394;-6.294;2023-04-30T04:38:08;100962.37;;;19.60;9.75
64698;BME280;51124;53.394;-6.294;2023-04-30T04:40:35;100962.20;;;19.69;9.76
64698;BME280;51124;53.394;-6.294;2023-04-30T04:43:02;100960.01;;;19.68;9.65
64698;BME280;51124;53.394;-6.294;2023-04-30T04:45:30;100959.35;;;18.97;9.76
64698;BME280;51124;53.394;-6.294;2023-04-30T04:47:57;100960.45;;;19.16;9.63
64698;BME280;51124;53.394;-6.294;2023-04-30T04:50:24;100957.42;;;19.34;9.53
64698;BME280;51124;53.394;-6.294;2023-04-30T04:52:51;100955.59;;;19.23;9.62
64698;BME280;51124;53.394;-6.294;2023-04-30T04:55:19;100952.64;;;21.78;9.89
64698;BME280;51124;53.394;-6.294;2023-04-30T04:57:46;100953.82;;;20.67;10.26
64698;BME280;51124;53.394;-6.294;2023-04-30T05:00:14;100955.06;;;19.72;10.17
64698;BME280;51124;53.394;-6.294;2023-04-30T05:02:41;100951.63;;;22.15;10.48
64698;BME280;51124;53.394;-6.294;2023-04-30T05:05:08;100952.38;;;22.33;10.95
64698;BME280;51124;53.394;-6.294;2023-04-30T05:07:36;100951.85;;;21.68;11.39
64698;BME280;51124;53.394;-6.294;2023-04-30T05:10:04;100952.06;;;22.36;11.55
64698;BME280;51124;53.394;-6.294;2023-04-30T05:12:32;100952.57;;;22.16;11.78
64698;BME280;51124;53.394;-6.294;2023-04-30T05:14:59;100946.34;;;20.92;11.91
64698;BME280;51124;53.394;-6.294;2023-04-30T05:17:26;100950.05;;;21.49;11.97
64698;BME280;51124;53.394;-6.294;2023-04-30T05:19:54;100952.74;;;21.39;11.96
64698;BME280;51124;53.394;-6.294;2023-04-30T05:22:22;100951.60;;;21.44;12.03
64698;BME280;51124;53.394;-6.294;2023-04-30T05:24:49;100956.87;;;21.97;11.93
64698;BME280;51124;53.394;-6.294;2023-04-30T05:27:17;100957.99;;;21.70;12.01
64698;BME280;51124;53.394;-6.294;2023-04-30T05:29:44;100954.95;;;21.55;12.09
64698;BME280;51124;53.394;-6.294;2023-04-30T05:32:12;100954.82;;;20.87;12.15
64698;BME280;51124;53.394;-6.294;2023-04-30T05:34:39;100952.00;;;21.40;12.13
64698;BME280;51124;53.394;-6.294;2023-04-30T05:37:07;100951.55;;;21.32;12.03
64698;BME280;51124;53.394;-6.294;2023-04-30T05:39:34;100952.19;;;21.71;12.12
64698;BME280;51124;53.394;-6.294;2023-04-30T05:42:02;100950.19;;;21.74;12.01
64698;BME280;51124;53.394;-6.294;2023-04-30T05:44:29;100952.56;;;21.45;12.05
64698;BME280;51124;53.394;-6.294;2023-04-30T05:46:57;100949.74;;;21.42;12.15
64698;BME280;51124;53.394;-6.294;2023-04-30T05:49:25;100952.08;;;21.83;12.01
64698;BME280;51124;53.394;-6.294;2023-04-30T05:51:53;100957.01;;;20.44;12.07
64698;BME280;51124;53.394;-6.294;2023-04-30T05:54:20;100956.08;;;19.36;11.77
64698;BME280;51124;53.394;-6.294;2023-04-30T05:56:48;100950.85;;;19.80;11.22
64698;BME280;51124;53.394;-6.294;2023-04-30T05:59:11;100946.54;;;18.85;11.01
64698;BME280;51124;53.394;-6.294;2023-04-30T06:01:44;100950.21;;;19.66;10.48
64698;BME280;51124;53.394;-6.294;2023-04-30T06:04:18;100946.43;;;19.22;10.41
64698;BME280;51124;53.394;-6.294;2023-04-30T06:06:51;100946.61;;;20.01;10.06
64698;BME280;51124;53.394;-6.294;2023-04-30T06:09:24;100946.66;;;19.45;9.95
64698;BME280;51124;53.394;-6.294;2023-04-30T06:11:58;100949.87;;;20.07;9.90
64698;BME280;51124;53.394;-6.294;2023-04-30T06:14:31;100953.51;;;20.42;9.64
64698;BME280;51124;53.394;-6.294;2023-04-30T06:17:05;100951.23;;;19.78;9.78
64698;BME280;51124;53.394;-6.294;2023-04-30T06:19:38;100947.02;;;19.92;9.72
64698;BME280;51124;53.394;-6.294;2023-04-30T06:22:12;100949.58;;;19.93;9.51
64698;BME280;51124;53.394;-6.294;2023-04-30T06:24:45;100953.30;;;19.82;9.51
64698;BME280;51124;53.394;-6.294;2023-04-30T06:27:18;100960.99;;;20.05;9.44
64698;BME280;51124;53.394;-6.294;2023-04-30T06:29:52;100961.92;;;19.31;9.58
64698;BME280;51124;53.394;-6.294;2023-04-30T06:32:25;100957.55;;;20.93;9.25
64698;BME280;51124;53.394;-6.294;2023-04-30T06:34:59;100961.22;;;19.69;9.36
64698;BME280;51124;53.394;-6.294;2023-04-30T06:37:32;100963.91;;;20.14;9.35
64698;BME280;51124;53.394;-6.294;2023-04-30T06:40:07;100966.67;;;19.84;9.28
64698;BME280;51124;53.394;-6.294;2023-04-30T06:42:40;100963.22;;;20.27;9.24
64698;BME280;51124;53.394;-6.294;2023-04-30T06:45:14;100963.94;;;20.12;9.25
64698;BME280;51124;53.394;-6.294;2023-04-30T06:47:47;100963.87;;;20.99;9.22
64698;BME280;51124;53.394;-6.294;2023-04-30T06:50:20;100964.02;;;20.25;9.22
64698;BME280;51124;53.394;-6.294;2023-04-30T06:52:54;100965.71;;;20.26;9.16
64698;BME280;51124;53.394;-6.294;2023-04-30T06:55:27;100962.85;;;20.33;9.14
64698;BME280;51124;53.394;-6.294;2023-04-30T06:58:01;100963.20;;;20.78;9.06
64698;BME280;51124;53.394;-6.294;2023-04-30T07:00:34;100964.11;;;20.23;9.15
64698;BME280;51124;53.394;-6.294;2023-04-30T07:03:07;100962.99;;;20.55;9.15
64698;BME280;51124;53.394;-6.294;2023-04-30T07:05:41;100966.29;;;20.60;9.11
64698;BME280;51124;53.394;-6.294;2023-04-30T07:08:14;100967.32;;;20.73;9.04
64698;BME280;51124;53.394;-6.294;2023-04-30T07:10:47;100959.92;;;20.85;9.10
64698;BME280;51124;53.394;-6.294;2023-04-30T07:13:21;100963.35;;;20.09;9.17
64698;BME280;51124;53.394;-6.294;2023-04-30T07:15:54;100962.56;;;20.21;9.30
64698;BME280;51124;53.394;-6.294;2023-04-30T07:18:27;100957.96;;;20.23;9.13
64698;BME280;51124;53.394;-6.294;2023-04-30T07:21:01;100962.66;;;20.74;9.08
64698;BME280;51124;53.394;-6.294;2023-04-30T07:23:34;100962.17;;;20.85;9.17
64698;BME280;51124;53.394;-6.294;2023-04-30T07:26:08;100966.28;;;20.34;9.20
64698;BME280;51124;53.394;-6.294;2023-04-30T07:28:41;100968.67;;;20.43;9.06
64698;BME280;51124;53.394;-6.294;2023-04-30T07:31:15;100973.41;;;21.08;9.12
64698;BME280;51124;53.394;-6.294;2023-04-30T07:33:48;100978.74;;;20.46;9.30
64698;BME280;51124;53.394;-6.294;2023-04-30T07:36:21;100978.76;;;20.72;9.40
64698;BME280;51124;53.394;-6.294;2023-04-30T07:38:55;100973.66;;;21.06;9.22
64698;BME280;51124;53.394;-6.294;2023-04-30T07:41:28;100978.94;;;20.57;9.16
64698;BME280;51124;53.394;-6.294;2023-04-30T07:44:01;100981.95;;;20.57;9.21
64698;BME280;51124;53.394;-6.294;2023-04-30T07:46:35;100986.32;;;20.52;9.24
64698;BME280;51124;53.394;-6.294;2023-04-30T07:49:08;100991.71;;;20.18;9.40
64698;BME280;51124;53.394;-6.294;2023-04-30T07:51:41;100989.91;;;19.84;9.33
64698;BME280;51124;53.394;-6.294;2023-04-30T07:54:15;100990.66;;;22.23;9.86
64698;BME280;51124;53.394;-6.294;2023-04-30T07:56:48;100990.27;;;22.06;10.17
64698;BME280;51124;53.394;-6.294;2023-04-30T07:59:22;100991.62;;;20.23;10.19
64698;BME280;51124;53.394;-6.294;2023-04-30T08:01:55;100989.71;;;23.21;10.30
64698;BME280;51124;53.394;-6.294;2023-04-30T08:04:29;100991.72;;;22.47;11.02
64698;BME280;51124;53.394;-6.294;2023-04-30T08:07:02;100994.55;;;22.62;11.03
64698;BME280;51124;53.394;-6.294;2023-04-30T08:09:36;100992.63;;;21.46;11.63
64698;BME280;51124;53.394;-6.294;2023-04-30T08:12:10;100997.37;;;22.69;11.42
64698;BME280;51124;53.394;-6.294;2023-04-30T08:14:43;100997.48;;;22.74;11.62
64698;BME280;51124;53.394;-6.294;2023-04-30T08:17:16;100998.95;;;22.19;11.63
64698;BME280;51124;53.394;-6.294;2023-04-30T08:19:50;100997.04;;;21.77;11.90
64698;BME280;51124;53.394;-6.294;2023-04-30T08:22:24;100997.99;;;21.69;11.81
64698;BME280;51124;53.394;-6.294;2023-04-30T08:24:58;100996.35;;;22.05;11.76
64698;BME280;51124;53.394;-6.294;2023-04-30T08:27:31;100999.22;;;21.37;12.12
64698;BME280;51124;53.394;-6.294;2023-04-30T08:30:06;100999.88;;;21.62;11.90
64698;BME280;51124;53.394;-6.294;2023-04-30T08:32:40;100997.49;;;21.70;12.03
64698;BME280;51124;53.394;-6.294;2023-04-30T08:35:13;100996.97;;;21.60;12.06
64698;BME280;51124;53.394;-6.294;2023-04-30T08:37:47;100997.02;;;22.04;12.01
64698;BME280;51124;53.394;-6.294;2023-04-30T08:40:21;100996.37;;;21.98;11.90
64698;BME280;51124;53.394;-6.294;2023-04-30T08:43:02;101000.83;;;21.93;11.88
64698;BME280;51124;53.394;-6.294;2023-04-30T08:45:27;101002.31;;;22.63;11.58
64698;BME280;51124;53.394;-6.294;2023-04-30T08:48:01;101004.31;;;22.75;11.60
64698;BME280;51124;53.394;-6.294;2023-04-30T08:50:35;101006.71;;;21.61;12.02
64698;BME280;51124;53.394;-6.294;2023-04-30T08:53:09;100998.78;;;21.31;11.37
64698;BME280;51124;53.394;-6.294;2023-04-30T08:55:33;100996.80;;;20.84;10.68
64698;BME280;51124;53.394;-6.294;2023-04-30T08:58:07;100993.02;;;20.54;10.19
64698;BME280;51124;53.394;-6.294;2023-04-30T09:00:40;100993.77;;;20.39;10.09
64698;BME280;51124;53.394;-6.294;2023-04-30T09:03:14;100993.05;;;20.55;10.13
64698;BME280;51124;53.394;-6.294;2023-04-30T09:05:47;100993.72;;;20.99;9.75
64698;BME280;51124;53.394;-6.294;2023-04-30T09:08:40;100993.17;;;19.65;10.17
64698;BME280;51124;53.394;-6.294;2023-04-30T09:10:53;100990.11;;;20.41;9.71
64698;BME280;51124;53.394;-6.294;2023-04-30T09:13:39;100990.71;;;20.14;9.70
64698;BME280;51124;53.394;-6.294;2023-04-30T09:15:52;100984.30;;;19.82;9.96
64698;BME280;51124;53.394;-6.294;2023-04-30T09:18:25;100995.67;;;20.28;9.80
64698;BME280;51124;53.394;-6.294;2023-04-30T09:21:00;100993.24;;;18.80;10.23
64698;BME280;51124;53.394;-6.294;2023-04-30T09:23:33;100996.17;;;18.98;10.40
64698;BME280;51124;53.394;-6.294;2023-04-30T09:26:07;100993.46;;;19.93;9.62
64698;BME280;51124;53.394;-6.294;2023-04-30T09:28:53;100988.47;;;20.51;9.45
64698;BME280;51124;53.394;-6.294;2023-04-30T09:31:18;100993.56;;;19.43;9.55
64698;BME280;51124;53.394;-6.294;2023-04-30T09:33:44;100989.78;;;20.64;9.23
64698;BME280;51124;53.394;-6.294;2023-04-30T09:36:07;100989.30;;;20.36;9.30
64698;BME280;51124;53.394;-6.294;2023-04-30T09:38:31;100992.53;;;20.81;9.06
64698;BME280;51124;53.394;-6.294;2023-04-30T09:41:05;100990.68;;;21.91;8.80
64698;BME280;51124;53.394;-6.294;2023-04-30T09:43:43;100991.10;;;21.48;8.97
64698;BME280;51124;53.394;-6.294;2023-04-30T09:46:07;100993.23;;;22.13;8.75
64698;BME280;51124;53.394;-6.294;2023-04-30T09:48:40;100991.93;;;21.88;8.60
64698;BME280;51124;53.394;-6.294;2023-04-30T09:51:06;100987.58;;;21.79;8.64
64698;BME280;51124;53.394;-6.294;2023-04-30T09:53:41;100997.34;;;21.42;8.69
64698;BME280;51124;53.394;-6.294;2023-04-30T09:56:06;100998.42;;;22.48;8.43
64698;BME280;51124;53.394;-6.294;2023-04-30T09:58:42;100998.69;;;21.18;8.98
64698;BME280;51124;53.394;-6.294;2023-04-30T10:01:07;101009.81;;;20.38;9.15
64698;BME280;51124;53.394;-6.294;2023-04-30T10:03:41;101002.16;;;22.44;8.58
64698;BME280;51124;53.394;-6.294;2023-04-30T10:06:15;100996.74;;;21.20;8.61
64698;BME280;51124;53.394;-6.294;2023-04-30T10:08:52;100997.76;;;22.38;8.48
64698;BME280;51124;53.394;-6.294;2023-04-30T10:11:18;100993.88;;;21.28;8.85
64698;BME280;51124;53.394;-6.294;2023-04-30T10:13:46;100995.35;;;20.27;9.09
64698;BME280;51124;53.394;-6.294;2023-04-30T10:16:17;100992.66;;;21.36;8.71
64698;BME280;51124;53.394;-6.294;2023-04-30T10:18:42;100989.48;;;22.45;8.25
64698;BME280;51124;53.394;-6.294;2023-04-30T10:21:12;100988.33;;;22.80;8.10
64698;BME280;51124;53.394;-6.294;2023-04-30T10:23:36;100990.33;;;22.35;8.39
64698;BME280;51124;53.394;-6.294;2023-04-30T10:26:10;100997.16;;;22.04;8.56
64698;BME280;51124;53.394;-6.294;2023-04-30T10:28:45;101000.79;;;21.38;8.88
64698;BME280;51124;53.394;-6.294;2023-04-30T10:31:11;101002.80;;;21.56;8.83
64698;BME280;51124;53.394;-6.294;2023-04-30T10:33:52;100999.57;;;20.65;8.85
64698;BME280;51124;53.394;-6.294;2023-04-30T10:36:25;100995.82;;;22.26;8.60
64698;BME280;51124;53.394;-6.294;2023-04-30T10:38:50;100997.84;;;22.43;8.28
64698;BME280;51124;53.394;-6.294;2023-04-30T10:41:25;100988.59;;;22.64;8.52
64698;BME280;51124;53.394;-6.294;2023-04-30T10:44:00;100989.86;;;21.27;8.62
64698;BME280;51124;53.394;-6.294;2023-04-30T10:46:24;100984.81;;;22.10;8.25
64698;BME280;51124;53.394;-6.294;2023-04-30T10:48:57;100987.08;;;22.04;8.42
64698;BME280;51124;53.394;-6.294;2023-04-30T10:51:48;100980.60;;;23.25;8.11
64698;BME280;51124;53.394;-6.294;2023-04-30T10:54:01;100980.28;;;23.68;8.63
64698;BME280;51124;53.394;-6.294;2023-04-30T10:56:34;100980.51;;;24.33;8.83
64698;BME280;51124;53.394;-6.294;2023-04-30T10:59:08;100976.88;;;21.83;9.15
64698;BME280;51124;53.394;-6.294;2023-04-30T11:01:58;100976.76;;;24.70;8.99
64698;BME280;51124;53.394;-6.294;2023-04-30T11:04:12;100973.93;;;25.42;9.54
64698;BME280;51124;53.394;-6.294;2023-04-30T11:06:53;100969.07;;;25.62;9.42
64698;BME280;51124;53.394;-6.294;2023-04-30T11:09:17;100968.36;;;25.98;9.52
64698;BME280;51124;53.394;-6.294;2023-04-30T11:12:01;100966.01;;;26.04;9.63
64698;BME280;51124;53.394;-6.294;2023-04-30T11:14:24;100961.84;;;24.70;10.12
64698;BME280;51124;53.394;-6.294;2023-04-30T11:16:58;100959.25;;;24.88;10.17
64698;BME280;51124;53.394;-6.294;2023-04-30T11:19:32;100958.92;;;25.20;10.29
64698;BME280;51124;53.394;-6.294;2023-04-30T11:22:22;100958.61;;;24.45;10.35
64698;BME280;51124;53.394;-6.294;2023-04-30T11:24:53;100957.68;;;25.83;9.86
64698;BME280;51124;53.394;-6.294;2023-04-30T11:27:06;100957.17;;;25.39;10.26
64698;BME280;51124;53.394;-6.294;2023-04-30T11:29:42;100951.49;;;27.01;9.52
64698;BME280;51124;53.394;-6.294;2023-04-30T11:32:16;100951.02;;;25.94;9.69
64698;BME280;51124;53.394;-6.294;2023-04-30T11:34:50;100954.19;;;26.11;9.78
64698;BME280;51124;53.394;-6.294;2023-04-30T11:37:29;100954.80;;;24.86;10.04
64698;BME280;51124;53.394;-6.294;2023-04-30T11:39:53;100949.14;;;25.57;10.11
64698;BME280;51124;53.394;-6.294;2023-04-30T11:42:19;100951.97;;;24.60;10.48
64698;BME280;51124;53.394;-6.294;2023-04-30T11:44:53;100945.89;;;24.23;10.83
64698;BME280;51124;53.394;-6.294;2023-04-30T11:47:26;100948.86;;;25.52;10.42
64698;BME280;51124;53.394;-6.294;2023-04-30T11:50:00;100949.68;;;25.30;10.57
64698;BME280;51124;53.394;-6.294;2023-04-30T11:52:34;100950.01;;;22.95;11.09
64698;BME280;51124;53.394;-6.294;2023-04-30T11:55:12;100949.05;;;22.04;10.58
64698;BME280;51124;53.394;-6.294;2023-04-30T11:57:39;100948.16;;;21.27;10.25
64698;BME280;51124;53.394;-6.294;2023-04-30T12:00:11;100942.47;;;23.03;9.52
64698;BME280;51124;53.394;-6.294;2023-04-30T12:02:35;100936.70;;;23.45;9.10
64698;BME280;51124;53.394;-6.294;2023-04-30T12:05:13;100938.63;;;22.50;9.07
64698;BME280;51124;53.394;-6.294;2023-04-30T12:07:36;100930.51;;;24.79;8.32
64698;BME280;51124;53.394;-6.294;2023-04-30T12:10:10;100932.50;;;24.77;8.03
64698;BME280;51124;53.394;-6.294;2023-04-30T12:12:43;100931.99;;;24.80;7.83
64698;BME280;51124;53.394;-6.294;2023-04-30T12:15:18;100932.29;;;24.65;7.86
64698;BME280;51124;53.394;-6.294;2023-04-30T12:17:52;100930.22;;;23.76;7.82
64698;BME280;51124;53.394;-6.294;2023-04-30T12:20:26;100932.04;;;24.49;7.55
64698;BME280;51124;53.394;-6.294;2023-04-30T12:23:01;100934.13;;;23.77;7.78
64698;BME280;51124;53.394;-6.294;2023-04-30T12:25:40;100930.97;;;23.86;7.76
64698;BME280;51124;53.394;-6.294;2023-04-30T12:28:03;100926.62;;;24.36;7.53
64698;BME280;51124;53.394;-6.294;2023-04-30T12:30:37;100926.32;;;24.38;7.57
64698;BME280;51124;53.394;-6.294;2023-04-30T12:33:10;100930.31;;;24.27;7.63
64698;BME280;51124;53.394;-6.294;2023-04-30T12:35:44;100934.43;;;24.08;7.62
64698;BME280;51124;53.394;-6.294;2023-04-30T12:38:17;100929.01;;;31.37;5.00
64698;BME280;51124;53.394;-6.294;2023-04-30T12:40:51;100923.48;;;30.64;4.91
64698;BME280;51124;53.394;-6.294;2023-04-30T12:43:24;100912.65;;;33.38;3.67
64698;BME280;51124;53.394;-6.294;2023-04-30T12:45:57;100901.28;;;34.16;2.88
64698;BME280;51124;53.394;-6.294;2023-04-30T12:48:42;100893.80;;;32.77;3.43
64698;BME280;51124;53.394;-6.294;2023-04-30T12:51:05;100888.20;;;35.15;2.60
64698;BME280;51124;53.394;-6.294;2023-04-30T12:53:44;100882.17;;;36.06;2.22
64698;BME280;51124;53.394;-6.294;2023-04-30T12:56:13;100889.76;;;29.14;4.14
64698;BME280;51124;53.394;-6.294;2023-04-30T12:58:37;100881.71;;;27.30;5.26
64698;BME280;51124;53.394;-6.294;2023-04-30T13:01:11;100883.63;;;27.58;5.58